Time;durP1;ratioP1;P1;durP2;ratioP2;P2;SDS_P1;SDS_P2;PMS_P1;PMS_P2;Temp;Humidity;BMP_temperature;BMP_pressure;BME280_temperature;BME280_humidity;BME280_pressure;Samples;Min_cycle;Max_cycle;Signal;HPM_P1;HPM_P2
2022/03/30 00:00:29;;;;;;;75.00;35.55;;;3.30;99.90;;;;;;4950166;28;20046;-78
2022/03/30 00:02:56;;;;;;;69.93;35.85;;;3.20;99.90;;;;;;4970409;28;20042;-78
2022/03/30 00:05:23;;;;;;;78.05;36.53;;;3.20;99.90;;;;;;4954065;28;20058;-78
2022/03/30 00:07:51;;;;;;;81.55;36.97;;;3.10;99.90;;;;;;4988428;28;20042;-77
2022/03/30 00:10:18;;;;;;;70.45;35.88;;;3.10;99.90;;;;;;4985859;28;20057;-78
2022/03/30 00:12:46;;;;;;;72.88;37.72;;;2.90;99.90;;;;;;4959294;23;20222;-78
2022/03/30 00:15:12;;;;;;;74.80;38.88;;;2.80;99.90;;;;;;5010054;28;20507;-78
2022/03/30 00:17:39;;;;;;;70.38;36.72;;;2.80;99.90;;;;;;5024254;28;20045;-77
2022/03/30 00:20:06;;;;;;;76.07;38.08;;;2.80;99.90;;;;;;5006608;28;20069;-78
2022/03/30 00:22:33;;;;;;;84.05;37.50;;;2.80;99.90;;;;;;4988473;28;20108;-78
2022/03/30 00:25:00;;;;;;;82.20;40.25;;;2.70;99.90;;;;;;5007902;28;20050;-77
2022/03/30 00:27:27;;;;;;;86.10;39.35;;;2.80;99.90;;;;;;4978117;28;20701;-78
2022/03/30 00:29:54;;;;;;;79.22;36.30;;;2.80;99.90;;;;;;5006960;28;20054;-75
2022/03/30 00:32:21;;;;;;;85.93;38.63;;;2.70;99.90;;;;;;5003611;28;20050;-76
2022/03/30 00:34:48;;;;;;;76.68;37.10;;;2.50;99.90;;;;;;5002058;28;20394;-76
2022/03/30 00:37:14;;;;;;;84.40;39.38;;;2.50;99.90;;;;;;4986725;28;20073;-76
2022/03/30 00:39:42;;;;;;;77.78;39.50;;;2.40;99.90;;;;;;5002126;28;20062;-76
2022/03/30 00:42:20;;;;;;;73.18;38.75;;;2.30;99.90;;;;;;5002999;28;20244;-79
2022/03/30 00:44:48;;;;;;;75.82;37.35;;;2.30;99.90;;;;;;4987038;28;20049;-76
2022/03/30 00:47:16;;;;;;;71.57;36.65;;;2.20;99.90;;;;;;4987071;28;20251;-76
2022/03/30 00:49:43;;;;;;;80.25;37.88;;;2.20;99.90;;;;;;4986629;28;20105;-77
2022/03/30 00:52:12;;;;;;;84.22;36.80;;;2.30;99.90;;;;;;5007898;28;20061;-76
2022/03/30 00:54:41;;;;;;;83.50;36.55;;;2.30;99.90;;;;;;4986994;28;20084;-79
2022/03/30 00:57:10;;;;;;;84.53;37.80;;;2.30;99.90;;;;;;5004676;28;20072;-76
2022/03/30 00:59:38;;;;;;;79.53;38.53;;;2.40;99.90;;;;;;4986136;28;20567;-75
2022/03/30 01:02:06;;;;;;;78.30;37.33;;;2.30;99.90;;;;;;5006353;28;20072;-76
2022/03/30 01:04:33;;;;;;;76.72;37.70;;;2.10;99.90;;;;;;5004210;28;20041;-77
2022/03/30 01:07:00;;;;;;;76.93;38.33;;;1.90;99.90;;;;;;5010754;28;20050;-76
2022/03/30 01:09:28;;;;;;;80.60;37.17;;;1.90;99.90;;;;;;5007814;28;20057;-77
2022/03/30 01:11:56;;;;;;;79.85;37.35;;;1.90;99.90;;;;;;5008232;28;20072;-79
2022/03/30 01:14:23;;;;;;;78.13;34.83;;;1.80;99.90;;;;;;4990168;28;20081;-76
2022/03/30 01:16:51;;;;;;;81.00;38.72;;;1.80;99.90;;;;;;5006279;28;20612;-76
2022/03/30 01:19:18;;;;;;;67.13;36.65;;;1.90;99.90;;;;;;4989067;28;20073;-76
2022/03/30 01:21:45;;;;;;;66.70;36.67;;;1.90;99.90;;;;;;5004964;28;20351;-75
2022/03/30 01:24:13;;;;;;;75.72;37.00;;;1.90;99.90;;;;;;4986825;28;20092;-75
2022/03/30 01:26:41;;;;;;;91.30;38.50;;;1.90;99.90;;;;;;5003389;28;20095;-75
2022/03/30 01:34:41;;;;;;;72.93;34.70;;;2.10;99.90;;;;;;4999231;28;20053;-79
2022/03/30 01:37:10;;;;;;;77.50;35.20;;;2.10;99.90;;;;;;5004306;28;20412;-78
2022/03/30 01:39:38;;;;;;;75.68;35.90;;;1.80;99.90;;;;;;4986038;28;20038;-79
2022/03/30 01:42:06;;;;;;;72.28;35.67;;;1.80;99.90;;;;;;5002047;28;20050;-76
2022/03/30 01:44:33;;;;;;;65.65;33.30;;;1.80;99.90;;;;;;5002174;28;20149;-79
2022/03/30 01:47:00;;;;;;;75.72;35.10;;;1.90;99.90;;;;;;4985755;28;20140;-77
2022/03/30 01:49:27;;;;;;;75.53;36.13;;;1.90;99.90;;;;;;5006033;28;20053;-77
2022/03/30 01:51:58;;;;;;;83.20;36.95;;;2.00;99.90;;;;;;5002296;28;20073;-77
2022/03/30 01:54:27;;;;;;;76.38;37.58;;;2.00;99.90;;;;;;5005243;28;20089;-76
2022/03/30 01:56:55;;;;;;;76.70;34.92;;;1.90;99.90;;;;;;5005049;28;20049;-76
2022/03/30 01:59:23;;;;;;;82.22;35.03;;;2.00;99.90;;;;;;5000092;28;20053;-76
2022/03/30 02:01:49;;;;;;;80.95;35.97;;;2.10;99.90;;;;;;4985225;28;20045;-76
2022/03/30 02:04:17;;;;;;;80.03;34.88;;;2.20;99.90;;;;;;5004174;28;20057;-76
2022/03/30 02:06:44;;;;;;;81.47;35.78;;;2.20;99.90;;;;;;5001035;28;20488;-76
2022/03/30 02:09:12;;;;;;;80.72;34.83;;;2.10;99.90;;;;;;5000164;28;20283;-76
2022/03/30 02:11:40;;;;;;;81.15;35.95;;;2.10;99.90;;;;;;5006162;28;20149;-76
2022/03/30 02:14:06;;;;;;;76.85;35.25;;;2.00;99.90;;;;;;5001672;28;20107;-76
2022/03/30 02:16:33;;;;;;;83.07;35.88;;;2.10;99.90;;;;;;4984061;28;20062;-76
2022/03/30 02:19:00;;;;;;;77.90;34.88;;;2.10;99.90;;;;;;5002351;28;20069;-77
2022/03/30 02:21:27;;;;;;;86.47;39.40;;;2.00;99.90;;;;;;4999935;28;20100;-76
2022/03/30 02:23:54;;;;;;;78.60;34.85;;;2.00;99.90;;;;;;5000101;28;20064;-77
2022/03/30 02:26:20;;;;;;;83.38;36.17;;;2.00;99.90;;;;;;5000914;28;20054;-77
2022/03/30 02:28:52;;;;;;;88.90;37.17;;;1.90;99.90;;;;;;5007973;28;20030;-78
2022/03/30 02:31:20;;;;;;;86.90;32.22;;;1.90;99.90;;;;;;4998709;28;20485;-76
2022/03/30 02:33:48;;;;;;;77.32;33.80;;;1.90;99.90;;;;;;5002747;28;20099;-76
2022/03/30 02:36:15;;;;;;;87.75;34.08;;;1.90;99.90;;;;;;4981440;28;20081;-76
2022/03/30 02:38:43;;;;;;;84.15;34.53;;;1.90;99.90;;;;;;4999800;28;20119;-76
2022/03/30 02:41:11;;;;;;;75.18;31.88;;;1.90;99.90;;;;;;4999276;28;20096;-76
2022/03/30 02:43:39;;;;;;;90.72;36.33;;;1.80;99.90;;;;;;5000539;28;20314;-76
2022/03/30 02:46:06;;;;;;;79.47;33.80;;;1.70;99.90;;;;;;5002001;28;20119;-76
2022/03/30 02:48:35;;;;;;;75.07;30.67;;;1.50;99.90;;;;;;4996332;28;20534;-76
2022/03/30 02:51:06;;;;;;;79.18;30.63;;;1.40;99.90;;;;;;5020477;28;20099;-76
2022/03/30 02:53:34;;;;;;;76.43;31.63;;;1.30;99.90;;;;;;5012298;28;20088;-76
2022/03/30 02:56:01;;;;;;;81.40;30.83;;;1.40;99.90;;;;;;4999082;28;20541;-76
2022/03/30 02:58:29;;;;;;;73.72;29.77;;;1.40;99.90;;;;;;5009460;28;20133;-76
2022/03/30 03:00:56;;;;;;;68.57;31.10;;;1.30;99.90;;;;;;4998410;28;20054;-76
2022/03/30 03:03:23;;;;;;;73.05;31.73;;;1.20;99.90;;;;;;5004683;28;20049;-76
2022/03/30 03:05:50;;;;;;;69.72;29.23;;;1.00;99.90;;;;;;5000475;28;20108;-77
2022/03/30 03:08:17;;;;;;;78.70;29.85;;;1.00;99.90;;;;;;4999540;28;20082;-78
2022/03/30 03:10:46;;;;;;;75.88;29.02;;;1.20;99.90;;;;;;4981824;28;20165;-76
2022/03/30 03:13:16;;;;;;;72.90;28.38;;;1.20;99.90;;;;;;5000920;28;20045;-77
2022/03/30 03:15:44;;;;;;;69.63;27.88;;;1.30;99.90;;;;;;5000572;28;20050;-76
2022/03/30 03:18:18;;;;;;;59.38;25.23;;;1.50;99.90;;;;;;5001158;28;20531;-76
2022/03/30 03:20:46;;;;;;;66.38;26.00;;;1.60;99.90;;;;;;4998210;28;20073;-78
2022/03/30 03:23:13;;;;;;;63.17;27.02;;;1.50;99.90;;;;;;5001600;28;20054;-79
2022/03/30 03:25:41;;;;;;;69.90;27.40;;;1.50;99.90;;;;;;5004096;28;20498;-77
2022/03/30 03:28:09;;;;;;;57.50;26.50;;;1.50;99.90;;;;;;4984112;28;20049;-77
2022/03/30 03:30:36;;;;;;;58.38;25.08;;;1.60;99.90;;;;;;4999538;28;20074;-76
2022/03/30 03:33:04;;;;;;;66.20;27.20;;;1.60;99.90;;;;;;5000415;28;20049;-76
2022/03/30 03:35:32;;;;;;;54.97;25.45;;;1.60;99.90;;;;;;5002458;28;20041;-77
2022/03/30 03:38:00;;;;;;;56.28;25.52;;;1.60;99.90;;;;;;5004657;28;20518;-76
2022/03/30 03:40:27;;;;;;;65.53;28.50;;;1.70;99.90;;;;;;5004534;28;20038;-76
2022/03/30 03:42:54;;;;;;;64.20;26.85;;;1.70;99.90;;;;;;4997815;28;20104;-76
2022/03/30 03:45:20;;;;;;;71.45;30.80;;;1.60;99.90;;;;;;4998162;28;20050;-77
2022/03/30 03:47:48;;;;;;;62.20;28.25;;;1.50;99.90;;;;;;5006895;28;20470;-76
2022/03/30 03:50:15;;;;;;;60.30;27.20;;;1.50;99.90;;;;;;5007081;28;20197;-76
2022/03/30 03:52:43;;;;;;;59.67;28.13;;;1.60;99.90;;;;;;5007267;28;20242;-76
2022/03/30 03:55:11;;;;;;;62.85;28.98;;;1.60;99.90;;;;;;5006571;28;20065;-77
2022/03/30 03:57:39;;;;;;;62.00;29.45;;;1.40;99.90;;;;;;5007456;28;20483;-77
2022/03/30 04:00:08;;;;;;;59.88;29.63;;;1.40;99.90;;;;;;4984229;28;20340;-76
2022/03/30 04:02:41;;;;;;;58.63;28.73;;;1.40;99.90;;;;;;4978651;28;20042;-77
2022/03/30 04:05:09;;;;;;;68.53;30.80;;;1.50;99.90;;;;;;4985599;28;20115;-77
2022/03/30 04:07:38;;;;;;;59.03;28.15;;;1.50;99.90;;;;;;4985971;28;20050;-77
2022/03/30 04:10:09;;;;;;;70.43;29.38;;;1.30;99.90;;;;;;5003135;28;20120;-77
2022/03/30 04:12:37;;;;;;;67.03;29.17;;;1.30;99.90;;;;;;5004887;28;20057;-77
2022/03/30 04:15:04;;;;;;;53.33;26.60;;;1.30;99.90;;;;;;5005683;28;20046;-76
2022/03/30 04:17:32;;;;;;;55.08;27.23;;;1.40;99.90;;;;;;5005771;28;20050;-76
2022/03/30 04:20:00;;;;;;;62.95;28.10;;;1.40;99.90;;;;;;5004813;28;20128;-76
2022/03/30 04:22:27;;;;;;;58.25;27.33;;;1.30;99.90;;;;;;5006337;28;20104;-76
2022/03/30 04:24:54;;;;;;;61.85;29.67;;;1.40;99.90;;;;;;5006219;28;20519;-76
2022/03/30 04:27:20;;;;;;;56.45;29.30;;;1.30;99.90;;;;;;4988993;28;20077;-78
2022/03/30 04:29:47;;;;;;;59.00;28.58;;;1.30;99.90;;;;;;5005896;28;20123;-76
2022/03/30 04:32:14;;;;;;;62.47;28.70;;;1.20;99.90;;;;;;5006177;28;20069;-77
2022/03/30 04:34:41;;;;;;;55.75;28.38;;;1.20;99.90;;;;;;4988788;28;20111;-77
2022/03/30 04:37:08;;;;;;;57.75;28.38;;;1.20;99.90;;;;;;5003547;28;20528;-77
2022/03/30 04:39:34;;;;;;;55.38;28.50;;;1.20;99.90;;;;;;5004948;28;20132;-77
2022/03/30 04:42:01;;;;;;;57.70;29.08;;;1.30;99.90;;;;;;4987713;28;20285;-77
2022/03/30 04:44:28;;;;;;;52.70;27.48;;;1.20;99.90;;;;;;5005054;28;20511;-77
2022/03/30 04:46:55;;;;;;;69.78;33.75;;;1.10;99.90;;;;;;5003731;28;20082;-77
2022/03/30 04:49:22;;;;;;;54.90;29.35;;;1.00;99.90;;;;;;5004107;28;20595;-77
2022/03/30 04:51:49;;;;;;;57.00;29.90;;;1.00;99.90;;;;;;5002774;28;20046;-76
2022/03/30 04:54:17;;;;;;;64.25;30.63;;;1.20;99.90;;;;;;5003231;28;20091;-77
2022/03/30 04:56:45;;;;;;;63.50;30.42;;;1.20;99.90;;;;;;5000474;28;20128;-77
2022/03/30 04:59:12;;;;;;;59.17;31.20;;;1.00;99.90;;;;;;4995266;28;20054;-76
2022/03/30 05:01:39;;;;;;;70.45;30.67;;;1.00;99.90;;;;;;5002571;28;20077;-76
2022/03/30 05:04:06;;;;;;;52.42;29.55;;;1.10;99.90;;;;;;5003236;28;20232;-76
2022/03/30 05:06:33;;;;;;;65.15;30.05;;;1.00;99.90;;;;;;4971869;28;20578;-76
2022/03/30 05:09:00;;;;;;;55.72;28.83;;;0.80;99.90;;;;;;4972687;28;20053;-77
2022/03/30 05:11:26;;;;;;;61.58;28.65;;;0.80;99.90;;;;;;4970353;28;20057;-76
2022/03/30 05:13:53;;;;;;;51.15;26.10;;;0.80;99.90;;;;;;4998143;28;20487;-76
2022/03/30 05:16:20;;;;;;;60.65;26.70;;;0.90;99.90;;;;;;5002110;28;20070;-76
2022/03/30 05:18:47;;;;;;;63.22;26.58;;;0.80;99.90;;;;;;4984833;28;20053;-76
2022/03/30 05:21:13;;;;;;;64.70;29.25;;;0.80;99.90;;;;;;5000115;28;20115;-78
2022/03/30 05:23:40;;;;;;;66.28;28.05;;;0.70;99.90;;;;;;4984445;28;20796;-76
2022/03/30 05:26:07;;;;;;;55.25;27.88;;;0.60;99.90;;;;;;4980918;28;20117;-78
2022/03/30 05:28:38;;;;;;;60.22;29.85;;;0.50;99.90;;;;;;5001918;28;20461;-76
2022/03/30 05:31:06;;;;;;;59.45;28.85;;;0.50;99.90;;;;;;5011958;28;20367;-76
2022/03/30 05:33:33;;;;;;;63.72;30.58;;;0.40;99.90;;;;;;5015810;28;20046;-76
2022/03/30 05:36:00;;;;;;;73.93;32.75;;;0.40;99.90;;;;;;5001603;28;20049;-77
2022/03/30 05:38:27;;;;;;;78.93;34.15;;;0.50;99.90;;;;;;4984160;28;20053;-76
2022/03/30 05:40:54;;;;;;;65.90;29.67;;;0.50;99.90;;;;;;5000977;28;20594;-76
2022/03/30 05:43:21;;;;;;;67.00;30.77;;;0.50;99.90;;;;;;4984238;28;20108;-77
2022/03/30 05:45:48;;;;;;;66.80;32.90;;;0.40;99.90;;;;;;4998412;28;20608;-77
2022/03/30 05:48:16;;;;;;;57.85;30.40;;;0.40;99.90;;;;;;5003759;28;20295;-76
2022/03/30 05:50:45;;;;;;;61.28;31.48;;;0.40;99.90;;;;;;5001193;28;20088;-77
2022/03/30 05:53:14;;;;;;;66.10;35.08;;;0.60;99.90;;;;;;5000505;28;20057;-76
2022/03/30 05:55:44;;;;;;;63.10;32.15;;;0.80;99.90;;;;;;4982713;28;20385;-76
2022/03/30 05:58:12;;;;;;;61.33;31.65;;;0.90;99.90;;;;;;4989223;28;20173;-76
2022/03/30 06:00:39;;;;;;;65.78;31.75;;;0.90;99.90;;;;;;4982880;28;20108;-77
2022/03/30 06:03:06;;;;;;;62.42;31.88;;;1.10;99.90;;;;;;4993505;28;20049;-78
2022/03/30 06:05:33;;;;;;;66.25;28.85;;;1.10;99.90;;;;;;4983245;28;20050;-76
2022/03/30 06:08:00;;;;;;;52.65;24.63;;;1.10;99.90;;;;;;4996556;28;20045;-76
2022/03/30 06:10:27;;;;;;;58.30;25.88;;;1.00;99.90;;;;;;5000384;28;20104;-77
2022/03/30 06:12:56;;;;;;;56.17;24.77;;;1.10;99.90;;;;;;5025854;23;20074;-77
2022/03/30 06:15:23;;;;;;;62.75;24.73;;;1.20;99.90;;;;;;5024842;28;20037;-77
2022/03/30 06:17:51;;;;;;;63.65;26.67;;;1.10;99.90;;;;;;5022340;28;20092;-78
2022/03/30 06:20:18;;;;;;;49.83;22.23;;;1.30;99.90;;;;;;5022806;28;20080;-78
2022/03/30 06:22:48;;;;;;;54.38;25.95;;;1.40;99.90;;;;;;4992206;28;20049;-78
2022/03/30 06:25:14;;;;;;;45.15;22.85;;;1.50;99.90;;;;;;5008937;28;20044;-77
2022/03/30 06:27:41;;;;;;;63.88;27.00;;;1.50;99.90;;;;;;5042897;28;20057;-77
2022/03/30 06:30:10;;;;;;;54.17;28.70;;;1.70;99.90;;;;;;5030339;28;20487;-78
2022/03/30 06:32:37;;;;;;;47.00;28.20;;;1.70;99.90;;;;;;5044981;28;20048;-78
2022/03/30 06:35:09;;;;;;;55.92;27.25;;;1.90;99.90;;;;;;5046689;28;20048;-78
2022/03/30 06:37:36;;;;;;;49.40;25.58;;;1.90;99.90;;;;;;5046168;28;20041;-78
2022/03/30 06:40:03;;;;;;;54.13;26.30;;;2.00;99.90;;;;;;5054469;28;20061;-77
2022/03/30 06:42:30;;;;;;;51.05;28.38;;;2.10;99.90;;;;;;5042746;28;20056;-78
2022/03/30 06:44:57;;;;;;;47.83;26.50;;;2.10;99.90;;;;;;5024821;28;20053;-77
2022/03/30 06:47:24;;;;;;;53.53;27.63;;;2.10;99.90;;;;;;5023021;28;20056;-76
2022/03/30 06:49:50;;;;;;;49.03;26.60;;;2.20;99.90;;;;;;5023774;28;20439;-76
2022/03/30 06:52:17;;;;;;;56.35;27.48;;;2.30;99.90;;;;;;5022444;28;20049;-76
2022/03/30 06:54:44;;;;;;;52.17;26.77;;;2.50;99.90;;;;;;5019899;28;20052;-78
2022/03/30 06:57:11;;;;;;;45.05;25.77;;;2.70;99.90;;;;;;5006451;28;20112;-79
2022/03/30 06:59:38;;;;;;;44.60;26.40;;;2.60;99.90;;;;;;5039070;28;20048;-76
2022/03/30 07:02:06;;;;;;;48.65;24.25;;;2.70;99.90;;;;;;5055962;28;20084;-76
2022/03/30 07:04:35;;;;;;;46.13;23.15;;;2.70;99.90;;;;;;5023145;28;20569;-76
2022/03/30 07:12:34;;;;;;;34.08;21.15;;;3.20;99.90;;;;;;5040034;28;20053;-77
2022/03/30 07:15:02;;;;;;;44.45;21.95;;;3.50;99.90;;;;;;5005105;28;20040;-76
2022/03/30 07:17:30;;;;;;;43.97;24.45;;;3.60;99.90;;;;;;5006434;28;20049;-76
2022/03/30 07:19:57;;;;;;;41.60;21.98;;;3.80;99.90;;;;;;5035322;28;20099;-77
2022/03/30 07:22:24;;;;;;;33.60;19.75;;;4.10;99.90;;;;;;5023375;28;20457;-77
2022/03/30 07:24:50;;;;;;;36.22;21.92;;;4.30;99.90;;;;;;5021984;28;20052;-76
2022/03/30 07:27:17;;;;;;;34.78;22.55;;;4.50;99.90;;;;;;5040650;28;20485;-77
2022/03/30 07:29:44;;;;;;;35.30;25.33;;;4.80;99.90;;;;;;5024378;28;20469;-77
2022/03/30 07:32:11;;;;;;;32.42;26.13;;;5.30;99.90;;;;;;5040660;28;20053;-77
2022/03/30 07:34:38;;;;;;;30.30;26.13;;;5.80;99.90;;;;;;5023023;28;20323;-76
2022/03/30 07:37:05;;;;;;;31.65;27.52;;;6.20;99.90;;;;;;5041089;28;20550;-77
2022/03/30 07:39:31;;;;;;;38.20;30.55;;;6.60;99.90;;;;;;5039852;28;20658;-79
2022/03/30 07:41:58;;;;;;;31.70;28.25;;;6.70;99.90;;;;;;5040683;28;20037;-77
2022/03/30 07:44:26;;;;;;;35.42;28.42;;;7.00;99.90;;;;;;5023015;28;20049;-76
2022/03/30 07:46:53;;;;;;;34.83;28.65;;;7.30;99.90;;;;;;5005018;28;20114;-77
2022/03/30 07:49:20;;;;;;;32.25;28.85;;;7.60;99.90;;;;;;5023100;28;20690;-77
2022/03/30 07:51:46;;;;;;;37.75;30.05;;;7.80;99.90;;;;;;5040323;28;20045;-77
2022/03/30 07:54:13;;;;;;;41.58;30.45;;;8.10;99.90;;;;;;5018599;28;20519;-76
2022/03/30 07:56:40;;;;;;;38.90;30.67;;;8.30;99.90;;;;;;5021487;28;20076;-77
2022/03/30 07:59:07;;;;;;;37.10;31.00;;;8.30;99.90;;;;;;5053236;28;20044;-78
2022/03/30 08:01:33;;;;;;;40.80;31.73;;;8.50;99.90;;;;;;5028189;28;20255;-76
2022/03/30 08:04:00;;;;;;;36.45;32.63;;;8.50;99.90;;;;;;5022291;28;20041;-77
2022/03/30 08:06:28;;;;;;;43.95;35.20;;;8.50;99.90;;;;;;5020830;28;20122;-77
2022/03/30 08:08:55;;;;;;;42.00;33.45;;;8.40;99.90;;;;;;5039817;28;20565;-77
2022/03/30 08:11:21;;;;;;;39.63;32.30;;;8.40;99.90;;;;;;5022364;28;20091;-76
2022/03/30 08:13:49;;;;;;;34.67;30.80;;;8.40;99.90;;;;;;5022786;28;20112;-77
2022/03/30 08:16:16;;;;;;;34.30;30.63;;;8.40;99.90;;;;;;5021907;28;20045;-77
2022/03/30 08:18:43;;;;;;;34.88;30.95;;;8.20;99.90;;;;;;5006961;28;20072;-77
2022/03/30 08:23:55;;;;;;;41.80;31.88;;;8.50;99.90;;;;;;5023416;28;20322;-77
2022/03/30 08:26:23;;;;;;;42.20;32.50;;;8.80;99.90;;;;;;5050039;28;20472;-77
2022/03/30 08:28:49;;;;;;;40.50;34.33;;;9.00;99.90;;;;;;5025794;28;20111;-77
2022/03/30 08:31:16;;;;;;;37.65;34.10;;;9.20;99.90;;;;;;5005201;28;20065;-77
2022/03/30 08:33:43;;;;;;;38.40;34.42;;;9.40;99.90;;;;;;5006590;28;20470;-78
2022/03/30 08:36:10;;;;;;;40.70;35.35;;;9.60;99.90;;;;;;5040557;28;20088;-78
2022/03/30 08:38:37;;;;;;;40.55;34.30;;;9.70;99.90;;;;;;5026591;28;20106;-77
2022/03/30 08:41:03;;;;;;;43.10;34.50;;;10.10;99.90;;;;;;5042647;28;20426;-78
2022/03/30 08:43:30;;;;;;;39.83;35.63;;;10.20;99.90;;;;;;5025349;28;20057;-77
2022/03/30 08:45:59;;;;;;;40.58;35.90;;;10.10;99.90;;;;;;5043367;28;20045;-77
2022/03/30 08:48:26;;;;;;;45.38;34.88;;;10.20;99.90;;;;;;5025607;28;20123;-77
2022/03/30 08:50:59;;;;;;;40.75;36.95;;;10.40;99.90;;;;;;5043485;28;20487;-78
2022/03/30 08:53:27;;;;;;;42.22;37.92;;;10.30;99.90;;;;;;5024906;28;20040;-78
2022/03/30 08:55:54;;;;;;;47.08;37.95;;;10.30;99.90;;;;;;5024841;28;20137;-78
2022/03/30 08:58:21;;;;;;;42.53;38.15;;;10.50;99.90;;;;;;5025384;28;20049;-77
2022/03/30 09:00:48;;;;;;;41.33;37.55;;;10.30;99.90;;;;;;5024680;28;20060;-78
2022/03/30 09:03:17;;;;;;;43.35;38.95;;;10.20;99.90;;;;;;5009190;28;20502;-77
2022/03/30 09:05:45;;;;;;;42.90;37.30;;;9.60;99.90;;;;;;5008323;28;20045;-78
2022/03/30 09:08:25;;;;;;;40.83;36.63;;;9.50;99.90;;;;;;5025307;28;20434;-77
2022/03/30 09:10:58;;;;;;;41.72;37.15;;;9.30;99.90;;;;;;5008143;28;20107;-78
2022/03/30 09:13:25;;;;;;;41.72;37.85;;;9.40;99.90;;;;;;5042922;28;20210;-77
2022/03/30 09:15:52;;;;;;;41.80;37.55;;;9.20;99.90;;;;;;5041898;28;20475;-78
2022/03/30 09:18:20;;;;;;;41.50;37.15;;;9.60;99.90;;;;;;5044080;28;20086;-78
2022/03/30 09:20:52;;;;;;;42.05;37.65;;;9.60;99.90;;;;;;5023545;28;20478;-78
2022/03/30 09:23:25;;;;;;;41.13;37.42;;;9.60;99.90;;;;;;5026001;28;20495;-78
2022/03/30 09:25:53;;;;;;;40.50;36.33;;;10.10;99.90;;;;;;5041365;28;20045;-78
2022/03/30 09:28:23;;;;;;;41.13;37.22;;;10.20;99.90;;;;;;5025392;28;20554;-77
2022/03/30 09:30:51;;;;;;;42.88;38.25;;;8.80;99.90;;;;;;5024433;28;20074;-79
2022/03/30 09:33:23;;;;;;;42.10;38.15;;;8.70;99.90;;;;;;5023635;28;20585;-78
2022/03/30 09:35:50;;;;;;;41.88;37.53;;;8.60;99.90;;;;;;5042011;28;20114;-77
2022/03/30 09:38:20;;;;;;;40.38;36.53;;;8.90;99.90;;;;;;5025460;28;20045;-78
2022/03/30 09:40:49;;;;;;;39.35;35.50;;;9.50;99.90;;;;;;5036780;28;20114;-78
2022/03/30 09:43:39;;;;;;;40.08;35.95;;;9.40;99.90;;;;;;5042510;28;20114;-78
2022/03/30 09:46:08;;;;;;;40.80;36.80;;;9.80;99.90;;;;;;5042224;28;20045;-78
2022/03/30 09:48:49;;;;;;;41.70;37.60;;;10.30;99.90;;;;;;5024154;28;20435;-78
2022/03/30 09:51:18;;;;;;;40.78;36.65;;;10.70;99.90;;;;;;5041443;28;20049;-79
2022/03/30 09:53:46;;;;;;;43.67;36.25;;;10.90;99.90;;;;;;5024192;28;20279;-77
2022/03/30 09:56:16;;;;;;;40.00;35.47;;;10.80;99.90;;;;;;5025609;28;20482;-78
2022/03/30 09:58:44;;;;;;;39.80;35.58;;;10.90;99.90;;;;;;5023098;28;20080;-78
2022/03/30 10:01:22;;;;;;;40.28;36.35;;;10.40;99.90;;;;;;5021958;28;20040;-79
2022/03/30 10:03:55;;;;;;;41.22;36.78;;;10.20;99.90;;;;;;5024090;28;20057;-78
2022/03/30 10:06:30;;;;;;;40.00;35.50;;;10.70;99.90;;;;;;5039938;28;20045;-78
2022/03/30 10:09:03;;;;;;;38.58;35.13;;;11.10;99.90;;;;;;5040308;28;20053;-75
2022/03/30 10:11:30;;;;;;;40.50;36.20;;;10.70;99.90;;;;;;5030903;28;20053;-78
2022/03/30 10:13:59;;;;;;;39.95;35.78;;;10.00;99.90;;;;;;5028971;28;20049;-77
2022/03/30 10:16:43;;;;;;;43.92;38.67;;;9.90;99.90;;;;;;5022069;28;20045;-76
2022/03/30 10:19:10;;;;;;;42.15;38.15;;;10.60;99.90;;;;;;5009216;28;20117;-76
2022/03/30 10:22:02;;;;;;;40.30;36.45;;;10.80;99.90;;;;;;5003634;28;20069;-77
2022/03/30 10:24:55;;;;;;;41.58;37.65;;;10.60;99.90;;;;;;5023150;28;20290;-78
2022/03/30 10:27:44;;;;;;;42.45;37.97;;;10.90;99.90;;;;;;5003213;28;20069;-76
2022/03/30 10:30:11;;;;;;;42.38;38.55;;;10.80;99.90;;;;;;5027417;28;20580;-75
2022/03/30 10:32:40;;;;;;;41.65;37.83;;;11.60;99.90;;;;;;5023148;28;20040;-76
2022/03/30 10:35:07;;;;;;;42.80;38.83;;;12.40;99.90;;;;;;5040037;28;20453;-77
2022/03/30 10:37:40;;;;;;;43.80;39.28;;;12.80;99.90;;;;;;5024915;28;20088;-76
2022/03/30 10:40:10;;;;;;;42.83;38.72;;;12.10;99.90;;;;;;5025970;28;20225;-76
2022/03/30 10:43:02;;;;;;;43.53;37.90;;;11.80;99.90;;;;;;5033642;28;20080;-78
2022/03/30 10:45:39;;;;;;;43.05;38.70;;;12.30;99.90;;;;;;5021967;28;20041;-78
2022/03/30 10:48:27;;;;;;;43.25;38.95;;;12.00;99.90;;;;;;5051155;28;20131;-77
2022/03/30 10:51:07;;;;;;;43.75;39.13;;;12.40;99.90;;;;;;5030710;28;20234;-78
2022/03/30 10:53:35;;;;;;;43.55;39.50;;;12.80;99.90;;;;;;5045267;28;20335;-78
2022/03/30 10:56:12;;;;;;;43.28;39.05;;;13.10;99.90;;;;;;5014296;28;20142;-78
2022/03/30 10:58:49;;;;;;;42.20;38.13;;;12.90;99.90;;;;;;5011554;28;20055;-81
2022/03/30 11:01:27;;;;;;;43.70;39.33;;;12.50;99.90;;;;;;5027179;28;20388;-79
2022/03/30 11:03:59;;;;;;;42.78;38.75;;;12.00;99.90;;;;;;5012363;28;20056;-79
2022/03/30 11:06:26;;;;;;;43.45;38.95;;;12.30;99.90;;;;;;5047994;28;20045;-78
2022/03/30 11:09:01;;;;;;;43.92;39.65;;;12.60;99.90;;;;;;5030648;28;20079;-77
2022/03/30 11:11:34;;;;;;;42.30;38.65;;;12.20;99.90;;;;;;5047748;28;20058;-78
2022/03/30 11:14:20;;;;;;;44.75;40.22;;;12.10;99.90;;;;;;5010255;28;20045;-78
2022/03/30 11:16:54;;;;;;;39.08;35.63;;;12.00;99.90;;;;;;4992108;28;20053;-78
2022/03/30 11:19:31;;;;;;;39.92;35.90;;;12.30;99.90;;;;;;5037375;28;20072;-77
2022/03/30 11:22:13;;;;;;;39.92;36.10;;;12.20;99.90;;;;;;5013511;28;20036;-77
2022/03/30 11:25:05;;;;;;;42.78;38.13;;;12.00;99.90;;;;;;5020782;28;20060;-76
2022/03/30 11:27:33;;;;;;;40.75;36.67;;;11.50;99.90;;;;;;5014242;28;20482;-77
2022/03/30 11:30:03;;;;;;;41.55;37.35;;;11.50;99.90;;;;;;5026845;28;20044;-77
2022/03/30 11:32:39;;;;;;;41.50;37.42;;;11.50;99.90;;;;;;5040211;28;20507;-78
2022/03/30 11:35:11;;;;;;;42.05;37.55;;;11.50;99.90;;;;;;5042685;28;20052;-78
2022/03/30 11:37:58;;;;;;;44.05;36.90;;;10.60;99.90;;;;;;5039626;28;20041;-78
2022/03/30 11:40:25;;;;;;;41.63;37.17;;;10.00;99.90;;;;;;5041098;28;20049;-77
2022/03/30 11:42:54;;;;;;;46.83;40.42;;;10.80;99.90;;;;;;5056425;28;20537;-77
2022/03/30 11:45:41;;;;;;;42.45;38.38;;;11.60;99.90;;;;;;5006080;28;20065;-78
2022/03/30 11:48:10;;;;;;;43.88;39.33;;;12.20;99.90;;;;;;5006338;28;20053;-77
2022/03/30 11:50:40;;;;;;;43.97;39.78;;;12.80;99.90;;;;;;5023944;28;20107;-76
2022/03/30 11:53:18;;;;;;;42.85;38.90;;;12.80;99.90;;;;;;5024005;28;20114;-77
2022/03/30 11:55:59;;;;;;;42.22;37.95;;;13.20;99.90;;;;;;5027127;28;20041;-77
2022/03/30 11:58:28;;;;;;;40.20;36.00;;;13.50;99.90;;;;;;5045019;28;20049;-75
2022/03/30 12:01:00;;;;;;;41.63;37.28;;;13.20;99.90;;;;;;5043994;28;20136;-78
2022/03/30 12:03:27;;;;;;;40.80;36.22;;;13.10;99.90;;;;;;5022488;28;20167;-76
2022/03/30 12:05:59;;;;;;;38.55;34.92;;;12.90;99.90;;;;;;5025437;28;20439;-77
2022/03/30 12:08:27;;;;;;;38.83;34.85;;;12.20;99.90;;;;;;5010560;28;20103;-74
2022/03/30 12:11:00;;;;;;;38.10;34.42;;;11.60;99.90;;;;;;5024786;28;20069;-74
2022/03/30 12:13:27;;;;;;;38.20;34.30;;;11.40;99.90;;;;;;5064232;23;20053;-74
2022/03/30 12:16:13;;;;;;;37.35;33.53;;;11.20;99.90;;;;;;5016972;28;20045;-73
2022/03/30 12:18:48;;;;;;;37.75;34.17;;;10.80;99.90;;;;;;5026300;28;20042;-73
2022/03/30 12:21:29;;;;;;;41.80;34.85;;;10.50;99.90;;;;;;5003767;28;20053;-75
2022/03/30 12:23:57;;;;;;;38.20;34.78;;;10.40;99.90;;;;;;5012686;28;20093;-75
2022/03/30 12:26:48;;;;;;;39.28;35.17;;;10.20;99.90;;;;;;4991519;28;20052;-74
2022/03/30 12:29:15;;;;;;;38.08;34.45;;;10.00;99.90;;;;;;5015039;28;20054;-74
2022/03/30 12:31:53;;;;;;;38.65;34.40;;;10.10;99.90;;;;;;5006049;28;20099;-74
2022/03/30 12:34:25;;;;;;;37.53;33.80;;;10.00;99.90;;;;;;4986346;28;20045;-74
2022/03/30 12:36:58;;;;;;;37.65;34.13;;;10.10;99.90;;;;;;5004822;28;20048;-75
2022/03/30 12:39:25;;;;;;;36.90;33.08;;;10.20;99.90;;;;;;5007128;28;20088;-74
2022/03/30 12:41:59;;;;;;;38.25;34.60;;;10.00;99.90;;;;;;5004465;28;20077;-74
2022/03/30 12:44:32;;;;;;;36.70;33.10;;;10.30;99.90;;;;;;5032455;28;20065;-74
2022/03/30 12:47:04;;;;;;;37.17;33.58;;;9.80;99.90;;;;;;5030473;28;20038;-74
2022/03/30 12:49:36;;;;;;;37.70;33.67;;;9.70;99.90;;;;;;5031194;28;20037;-75
2022/03/30 12:52:04;;;;;;;38.60;34.25;;;9.50;99.90;;;;;;5000926;28;20049;-76
2022/03/30 12:54:31;;;;;;;37.35;33.78;;;9.70;99.90;;;;;;5013364;28;20038;-76
2022/03/30 12:56:58;;;;;;;36.05;32.45;;;9.70;99.90;;;;;;4992909;28;20531;-74